Time;durP1;ratioP1;P1;durP2;ratioP2;P2;SDS_P1;SDS_P2;PMS_P1;PMS_P2;Temp;Humidity;BMP_temperature;BMP_pressure;BME280_temperature;BME280_humidity;BME280_pressure;Samples;Min_cycle;Max_cycle;Signal;HPM_P1;HPM_P2
2023/06/11 00:01:42;;;;;;;;;15.00;13.00;;;;;26.61;46.74;100509.63;4975099;28;45679;-80
2023/06/11 00:04:08;;;;;;;;;14.25;13.75;;;;;26.58;46.64;100498.50;4973615;28;45685;-81
2023/06/11 00:06:33;;;;;;;;;13.25;12.75;;;;;26.55;47.00;100497.09;4975554;28;45709;-81
2023/06/11 00:12:21;;;;;;;;;12.25;12.00;;;;;26.61;46.43;100511.53;4974887;28;46032;-80
2023/06/11 00:14:46;;;;;;;;;13.00;12.50;;;;;26.62;46.67;100502.41;4975088;28;45651;-81
2023/06/11 00:17:11;;;;;;;;;16.50;16.00;;;;;26.60;47.11;100501.81;4974897;28;45640;-77
2023/06/11 00:19:37;;;;;;;;;15.00;14.00;;;;;26.61;46.90;100506.94;4974507;28;45602;-80
2023/06/11 00:22:04;;;;;;;;;14.25;11.75;;;;;26.62;46.68;100500.53;4974150;28;46065;-79
2023/06/11 00:27:51;;;;;;;;;15.25;15.25;;;;;26.67;47.25;100516.84;4964271;28;46696;-78
2023/06/11 00:30:17;;;;;;;;;16.25;15.00;;;;;26.62;47.35;100503.22;4974386;28;46269;-78
2023/06/11 00:32:42;;;;;;;;;16.00;15.25;;;;;26.54;47.37;100495.44;4974315;28;45501;-79
2023/06/11 00:35:08;;;;;;;;;18.00;15.00;;;;;26.68;46.86;100510.44;4974339;28;45772;-78
2023/06/11 00:37:35;;;;;;;;;19.00;18.00;;;;;26.69;47.24;100511.25;4974542;28;45675;-78
2023/06/11 00:40:01;;;;;;;;;16.25;15.75;;;;;26.65;46.68;100512.75;4974139;28;45959;-79
2023/06/11 00:42:27;;;;;;;;;17.25;16.25;;;;;26.69;47.46;100514.78;4974278;28;46081;-79
2023/06/11 00:44:54;;;;;;;;;14.75;14.50;;;;;26.69;46.88;100522.84;4974296;28;45969;-79
2023/06/11 00:47:20;;;;;;;;;18.75;16.50;;;;;26.40;47.45;100469.66;4974558;28;45781;-81
2023/06/11 00:49:46;;;;;;;;;18.25;16.00;;;;;26.69;47.09;100517.47;4973979;28;45615;-78
2023/06/11 00:52:15;;;;;;;;;14.00;14.00;;;;;26.66;46.95;100511.72;4973881;28;46210;-79
2023/06/11 00:58:02;;;;;;;;;17.00;16.50;;;;;26.69;47.44;100525.53;4973914;28;45663;-78
2023/06/11 01:00:28;;;;;;;;;20.25;18.00;;;;;26.69;46.69;100524.69;4973607;28;45489;-78
2023/06/11 01:03:05;;;;;;;;;15.75;15.50;;;;;26.68;47.28;100529.25;4973802;28;46084;-79
2023/06/11 01:05:43;;;;;;;;;15.50;15.50;;;;;26.67;46.77;100527.59;4974036;28;45533;-79
2023/06/11 01:08:13;;;;;;;;;15.00;14.50;;;;;26.67;46.93;100524.09;4973697;28;45623;-79
2023/06/11 01:10:40;;;;;;;;;17.25;16.00;;;;;26.58;47.24;100520.84;4973730;28;49085;-78
2023/06/11 01:13:05;;;;;;;;;16.50;15.00;;;;;26.65;47.17;100523.50;4973734;28;46048;-77
2023/06/11 01:15:31;;;;;;;;;16.25;15.25;;;;;26.53;47.43;100509.91;4973942;28;45608;-78
2023/06/11 01:18:10;;;;;;;;;18.25;17.25;;;;;26.64;47.21;100527.22;4973875;28;45763;-78
2023/06/11 01:20:56;;;;;;;;;15.00;14.50;;;;;26.55;47.11;100515.06;4973389;28;47361;-79
2023/06/11 01:23:41;;;;;;;;;16.50;15.25;;;;;26.61;46.87;100520.38;4973045;28;46148;-78
2023/06/11 01:26:31;;;;;;;;;14.00;13.75;;;;;26.61;47.01;100531.16;4973628;28;45844;-79
2023/06/11 01:29:00;;;;;;;;;14.25;14.25;;;;;26.58;47.67;100518.16;4973337;28;45541;-78
2023/06/11 01:31:29;;;;;;;;;14.00;14.00;;;;;26.51;47.76;100508.47;4973358;28;46521;-80
2023/06/11 01:33:56;;;;;;;;;14.00;13.75;;;;;26.55;47.36;100513.22;4973476;28;45996;-77
2023/06/11 01:36:24;;;;;;;;;19.25;17.00;;;;;26.50;47.92;100504.16;4973402;28;45778;-80
2023/06/11 01:38:51;;;;;;;;;14.50;14.25;;;;;26.48;47.85;100498.97;4973316;28;45592;-79
2023/06/11 01:41:17;;;;;;;;;15.75;15.25;;;;;26.52;48.07;100516.31;4973083;28;47094;-77
2023/06/11 01:43:42;;;;;;;;;15.50;14.00;;;;;26.50;47.72;100507.66;4972986;28;46160;-79
2023/06/11 01:46:10;;;;;;;;;16.25;15.25;;;;;26.37;48.08;100486.22;4973547;28;45589;-79
2023/06/11 01:48:36;;;;;;;;;15.25;14.25;;;;;26.37;48.05;100494.28;4973464;28;45521;-77
2023/06/11 01:51:02;;;;;;;;;14.00;14.00;;;;;26.34;48.22;100500.09;4973373;28;45617;-79
2023/06/11 01:53:27;;;;;;;;;13.50;12.25;;;;;26.36;48.12;100505.25;4955633;28;45673;-77
2023/06/11 01:59:17;;;;;;;;;17.75;14.00;;;;;26.34;48.21;100505.47;4977680;28;45667;-79
2023/06/11 02:01:43;;;;;;;;;16.00;16.00;;;;;26.29;48.68;100499.88;4979320;28;46974;-80
2023/06/11 02:04:08;;;;;;;;;13.00;12.75;;;;;26.32;48.15;100515.59;4978161;28;47976;-78
2023/06/11 02:06:34;;;;;;;;;18.75;16.75;;;;;26.28;48.29;100504.47;4979679;28;45707;-77
2023/06/11 02:08:59;;;;;;;;;13.25;11.75;;;;;26.33;48.66;100511.88;4979646;28;45711;-78
2023/06/11 02:11:24;;;;;;;;;15.50;14.75;;;;;26.31;48.34;100505.88;4979718;28;45715;-79
2023/06/11 02:13:50;;;;;;;;;13.75;13.75;;;;;26.24;48.78;100502.41;4979552;28;45589;-79
2023/06/11 02:16:15;;;;;;;;;16.75;16.00;;;;;26.27;48.24;100499.31;4979375;28;45839;-79
2023/06/11 02:19:01;;;;;;;;;17.25;14.50;;;;;26.26;48.92;100505.69;4978081;28;45596;-78
2023/06/11 02:21:26;;;;;;;;;16.75;15.25;;;;;26.27;49.00;100502.81;4979311;28;46549;-80
2023/06/11 02:30:49;;;;;;;;;12.75;11.75;;;;;26.17;48.76;100493.53;4940758;28;45805;-78
2023/06/11 02:33:25;;;;;;;;;12.00;12.00;;;;;26.23;49.24;100500.78;4940075;28;46508;-79
2023/06/11 02:35:51;;;;;;;;;16.50;15.00;;;;;26.10;49.15;100472.06;4940662;28;46219;-77
2023/06/11 02:38:16;;;;;;;;;11.00;10.75;;;;;26.20;48.70;100491.22;4955180;28;46309;-78
2023/06/11 02:44:03;;;;;;;;;11.75;11.75;;;;;26.21;48.72;100492.06;4940004;28;46061;-77
2023/06/11 02:46:29;;;;;;;;;12.00;12.00;;;;;26.14;48.61;100489.41;4940372;28;45850;-78
2023/06/11 02:48:54;;;;;;;;;12.75;12.00;;;;;26.13;48.94;100481.53;4939872;28;45667;-78
2023/06/11 02:51:19;;;;;;;;;11.00;9.00;;;;;26.18;48.97;100487.13;4940257;28;45858;-78
2023/06/11 02:54:04;;;;;;;;;11.25;10.75;;;;;26.17;48.77;100489.00;4938498;28;47478;-79
2023/06/11 02:59:51;;;;;;;;;11.50;11.00;;;;;26.08;49.00;100481.34;4939878;28;45560;-79
2023/06/11 03:02:16;;;;;;;;;17.50;16.25;;;;;26.07;49.15;100477.88;4939861;28;45685;-79
2023/06/11 03:04:41;;;;;;;;;14.00;13.25;;;;;26.01;49.12;100476.03;4938403;28;45598;-79
2023/06/11 03:07:07;;;;;;;;;15.00;14.75;;;;;26.06;49.58;100483.44;4938867;28;45746;-78
2023/06/11 03:09:32;;;;;;;;;12.75;12.75;;;;;26.05;49.26;100479.94;4936537;28;45668;-79
2023/06/11 03:11:57;;;;;;;;;14.00;14.00;;;;;25.97;49.21;100468.59;4934905;28;45843;-78
2023/06/11 03:14:24;;;;;;;;;14.00;12.25;;;;;26.04;49.33;100480.16;4935183;28;47320;-78
2023/06/11 03:16:50;;;;;;;;;15.25;13.00;;;;;25.99;49.47;100477.28;4935265;28;47337;-79
2023/06/11 03:19:16;;;;;;;;;15.75;13.00;;;;;26.02;49.40;100487.59;4935015;28;45816;-79
2023/06/11 03:21:41;;;;;;;;;12.75;11.75;;;;;25.87;49.37;100461.00;4935509;28;45696;-79
2023/06/11 03:24:06;;;;;;;;;16.00;15.25;;;;;26.01;49.62;100494.00;4935181;28;46392;-78
2023/06/11 03:29:53;;;;;;;;;15.50;14.25;;;;;25.86;49.97;100481.66;4956839;28;45850;-79
2023/06/11 03:32:19;;;;;;;;;13.25;13.00;;;;;25.91;49.94;100499.84;4973812;28;45999;-78
2023/06/11 03:34:44;;;;;;;;;15.75;14.75;;;;;25.74;50.29;100483.38;4973867;28;45667;-79
2023/06/11 03:37:10;;;;;;;;;17.75;15.50;;;;;25.89;50.01;100499.22;4974037;28;45667;-79
2023/06/11 03:39:47;;;;;;;;;14.50;13.50;;;;;25.87;49.97;100498.59;4974312;28;45721;-79
2023/06/11 03:46:04;;;;;;;;;;;;;;;;;;;;;
2023/06/11 03:48:38;;;;;;;;;16.50;14.00;;;;;25.85;50.01;100501.50;4968628;28;74484;-79
2023/06/11 03:51:03;;;;;;;;;18.25;17.25;;;;;25.78;50.26;100486.44;4955644;28;45939;-79
2023/06/11 03:53:28;;;;;;;;;16.00;13.25;;;;;25.84;50.51;100505.22;4973044;28;45783;-78
2023/06/11 03:55:54;;;;;;;;;19.00;17.50;;;;;25.83;50.51;100511.63;4973301;28;46290;-78
2023/06/11 03:58:25;;;;;;;;;17.25;17.25;;;;;25.73;50.89;100489.75;4973088;28;46126;-79
2023/06/11 04:00:51;;;;;;;;;15.25;14.75;;;;;25.71;50.77;100489.13;4972998;28;45672;-80
2023/06/11 04:03:16;;;;;;;;;18.00;16.75;;;;;25.72;50.49;100493.47;4972820;28;45696;-79
2023/06/11 04:05:42;;;;;;;;;19.50;18.25;;;;;25.82;50.48;100498.41;4973246;28;46621;-80
2023/06/11 04:08:07;;;;;;;;;20.00;18.25;;;;;25.82;50.51;100501.09;4972663;28;46048;-80
2023/06/11 04:10:32;;;;;;;;;22.25;21.25;;;;;25.81;50.97;100500.25;4973124;28;45715;-78
2023/06/11 04:13:00;;;;;;;;;21.50;19.75;;;;;25.78;50.85;100505.22;4972899;28;45818;-79
2023/06/11 04:15:29;;;;;;;;;21.75;21.25;;;;;25.75;50.87;100498.41;4955901;28;45854;-79
2023/06/11 04:17:54;;;;;;;;;22.25;19.75;;;;;25.79;50.84;100509.56;4972791;28;45957;-77
2023/06/11 04:20:20;;;;;;;;;20.50;20.50;;;;;25.64;50.89;100485.63;4973086;28;45736;-79
2023/06/11 04:22:45;;;;;;;;;21.50;20.50;;;;;25.77;50.92;100515.13;4972153;28;45692;-79
2023/06/11 04:25:11;;;;;;;;;20.00;19.75;;;;;25.72;51.03;100503.38;4973146;28;46538;-79
2023/06/11 04:30:59;;;;;;;;;19.50;17.50;;;;;25.70;51.26;100511.63;4961766;28;45846;-78
2023/06/11 04:33:32;;;;;;;;;19.50;19.00;;;;;25.69;51.55;100509.19;4972051;28;45534;-78
2023/06/11 04:36:01;;;;;;;;;17.75;17.00;;;;;25.68;51.43;100511.03;4972615;28;46705;-78
2023/06/11 04:38:30;;;;;;;;;18.50;17.00;;;;;25.63;51.31;100493.91;4972205;28;45498;-77
2023/06/11 04:40:56;;;;;;;;;19.50;19.00;;;;;25.65;51.28;100505.25;4972348;28;45736;-79
2023/06/11 04:43:25;;;;;;;;;19.50;17.25;;;;;25.68;51.63;100511.03;4972348;28;45706;-79
2023/06/11 04:45:55;;;;;;;;;19.25;18.00;;;;;25.68;51.62;100511.03;4972706;28;46006;-78
2023/06/11 04:48:24;;;;;;;;;20.50;18.50;;;;;25.70;51.69;100505.44;4971903;28;46010;-78
2023/06/11 04:50:52;;;;;;;;;17.00;15.25;;;;;25.71;51.13;100509.78;4972338;28;45761;-78
2023/06/11 04:53:21;;;;;;;;;18.50;17.75;;;;;25.69;51.55;100507.31;4972026;28;45752;-78
2023/06/11 04:55:51;;;;;;;;;19.50;17.00;;;;;25.72;51.66;100517.63;4954988;28;46837;-79
2023/06/11 04:58:21;;;;;;;;;18.25;17.25;;;;;25.65;51.65;100499.88;4972133;28;45657;-80
2023/06/11 05:00:47;;;;;;;;;23.00;19.00;;;;;25.66;51.61;100501.53;4972672;28;45894;-79
2023/06/11 05:03:16;;;;;;;;;19.00;17.00;;;;;25.68;51.52;100497.63;4972286;28;45912;-78
2023/06/11 05:05:49;;;;;;;;;17.50;16.75;;;;;25.72;51.54;100500.69;4972054;28;47407;-79
2023/06/11 05:08:15;;;;;;;;;20.00;18.50;;;;;25.76;51.72;100518.84;4971840;28;46286;-79
2023/06/11 05:10:42;;;;;;;;;18.25;16.75;;;;;25.77;51.70;100511.63;4972049;28;46007;-78
2023/06/11 05:16:29;;;;;;;;;14.50;14.00;;;;;25.76;52.53;100524.22;4971722;28;45631;-79
2023/06/11 05:18:54;;;;;;;;;19.00;17.50;;;;;25.69;52.59;100509.19;4971630;28;45868;-79
2023/06/11 05:21:20;;;;;;;;;17.25;17.25;;;;;25.63;52.62;100510.84;4971569;28;45575;-79
2023/06/11 05:23:46;;;;;;;;;16.75;14.75;;;;;25.67;52.56;100522.81;4972045;28;45807;-79
2023/06/11 05:26:15;;;;;;;;;13.00;13.00;;;;;25.61;52.61;100510.22;4971895;28;45741;-79
2023/06/11 05:28:40;;;;;;;;;18.00;16.50;;;;;25.67;52.46;100516.59;4971408;28;46020;-79
2023/06/11 05:31:09;;;;;;;;;16.25;14.75;;;;;25.68;52.33;100520.94;4971576;28;45595;-80
2023/06/11 05:33:34;;;;;;;;;17.75;16.00;;;;;25.68;52.24;100520.94;4971031;28;45927;-77
2023/06/11 05:36:00;;;;;;;;;16.00;15.75;;;;;25.69;52.20;100522.59;4971416;28;45738;-78
2023/06/11 05:38:25;;;;;;;;;17.50;16.00;;;;;25.65;52.41;100524.03;4971193;28;46217;-79
2023/06/11 05:40:50;;;;;;;;;17.50;16.75;;;;;25.72;52.47;100523.00;4971811;28;45610;-79
2023/06/11 05:43:16;;;;;;;;;18.00;16.75;;;;;25.75;52.65;100527.13;4971456;28;45778;-79
2023/06/11 05:45:50;;;;;;;;;16.50;14.50;;;;;25.76;52.29;100526.91;4971449;28;47693;-79
2023/06/11 05:48:16;;;;;;;;;15.50;15.25;;;;;25.76;52.69;100529.59;4971423;28;47045;-76
2023/06/11 05:50:42;;;;;;;;;17.75;15.75;;;;;25.78;52.27;100529.38;4972451;28;45686;-75
2023/06/11 05:53:09;;;;;;;;;16.50;15.50;;;;;25.80;52.63;100528.13;4973121;28;45733;-77
2023/06/11 05:55:35;;;;;;;;;14.25;13.75;;;;;25.80;52.26;100524.66;4973776;28;46263;-76
2023/06/11 05:58:01;;;;;;;;;19.00;15.50;;;;;25.74;52.56;100507.53;4938049;28;47253;-76
2023/06/11 06:00:28;;;;;;;;;17.75;17.50;;;;;25.85;52.10;100528.34;4971070;28;45809;-77
2023/06/11 06:02:53;;;;;;;;;18.00;17.25;;;;;25.87;52.19;100537.00;4953001;28;45799;-77
2023/06/11 06:05:20;;;;;;;;;13.50;12.50;;;;;25.85;52.38;100539.09;4970254;28;48662;-77
2023/06/11 06:07:45;;;;;;;;;17.50;16.75;;;;;25.71;52.20;100512.47;4953521;28;46861;-78
2023/06/11 06:10:10;;;;;;;;;17.00;15.75;;;;;25.84;52.41;100529.38;4970608;28;45672;-76
2023/06/11 06:12:36;;;;;;;;;16.50;13.75;;;;;25.81;52.45;100519.03;4971766;28;45740;-75
2023/06/11 06:15:01;;;;;;;;;16.00;15.00;;;;;25.89;52.41;100537.63;4971585;28;45730;-77
2023/06/11 06:17:27;;;;;;;;;16.00;14.75;;;;;25.91;52.40;100534.75;4971599;28;46509;-75
2023/06/11 06:19:52;;;;;;;;;21.25;16.25;;;;;25.90;52.55;100541.97;4972104;28;45721;-77
2023/06/11 06:22:18;;;;;;;;;11.75;10.00;;;;;25.90;52.28;100533.91;4972440;28;45509;-78
2023/06/11 06:24:46;;;;;;;;;15.00;14.00;;;;;25.94;52.28;100541.53;4970666;28;46779;-76
2023/06/11 06:27:12;;;;;;;;;15.50;14.00;;;;;25.97;52.05;100543.78;4972606;28;46303;-75
2023/06/11 06:29:38;;;;;;;;;15.50;14.00;;;;;25.97;52.08;100546.47;4972242;28;45809;-76
2023/06/11 06:32:05;;;;;;;;;13.00;12.00;;;;;25.96;51.99;100544.84;4971260;28;45736;-75
2023/06/11 06:34:31;;;;;;;;;15.00;15.00;;;;;25.90;51.82;100523.16;4971623;28;46600;-75
2023/06/11 06:36:56;;;;;;;;;13.50;12.50;;;;;26.04;51.76;100539.22;4971542;28;46549;-75
2023/06/11 06:39:21;;;;;;;;;12.50;11.50;;;;;26.06;51.58;100539.84;4971080;28;45805;-77
2023/06/11 06:41:47;;;;;;;;;13.25;11.25;;;;;26.09;51.50;100547.47;4971713;28;45890;-76
2023/06/11 06:47:34;;;;;;;;;9.00;7.50;;;;;26.12;51.19;100547.91;4976492;28;45860;-84
2023/06/11 06:49:59;;;;;;;;;6.75;6.00;;;;;26.12;51.55;100547.06;4964238;28;45610;-78
2023/06/11 06:52:25;;;;;;;;;9.25;9.00;;;;;26.08;51.44;100535.06;4980274;28;45547;-78
2023/06/11 06:54:51;;;;;;;;;8.00;7.50;;;;;26.13;51.38;100538.78;4975914;28;47207;-78
2023/06/11 06:57:17;;;;;;;;;7.00;6.75;;;;;26.18;51.25;100549.72;4960712;28;46230;-83
2023/06/11 07:03:04;;;;;;;;;7.75;7.25;;;;;26.20;51.55;100547.66;4976949;28;45671;-86
2023/06/11 07:05:29;;;;;;;;;9.50;9.25;;;;;26.25;51.75;100547.88;4976197;28;46589;-82
2023/06/11 07:07:55;;;;;;;;;33.75;18.75;;;;;26.26;51.72;100556.75;4975076;28;46414;-81
2023/06/11 07:10:20;;;;;;;;;25.00;15.00;;;;;26.23;51.62;100549.94;4974652;28;45523;-82
2023/06/11 07:12:45;;;;;;;;;10.75;10.00;;;;;26.27;51.45;100564.59;4974803;28;45780;-78
2023/06/11 07:15:11;;;;;;;;;10.00;10.00;;;;;26.30;51.95;100564.16;4974632;28;45816;-80
2023/06/11 07:17:37;;;;;;;;;11.00;9.50;;;;;26.31;52.33;100567.69;4975711;28;45834;-82
2023/06/11 07:20:04;;;;;;;;;13.00;12.25;;;;;26.31;52.60;100570.38;4975758;28;45817;-84
2023/06/11 07:22:30;;;;;;;;;12.75;11.50;;;;;26.30;52.97;100574.91;4974046;28;45882;-80
2023/06/11 07:24:56;;;;;;;;;16.75;14.75;;;;;26.22;52.73;100567.09;4976465;28;46516;-80
2023/06/11 07:27:22;;;;;;;;;10.75;10.75;;;;;26.22;52.99;100558.19;4974531;28;45851;-81
2023/06/11 07:33:51;;;;;;;;;13.00;12.25;;;;;26.39;53.10;100582.75;4968951;28;45735;-84
2023/06/11 07:36:17;;;;;;;;;17.75;16.00;;;;;26.37;53.39;100582.13;4974877;28;46664;-80
2023/06/11 07:38:43;;;;;;;;;16.75;15.50;;;;;26.36;53.79;100591.22;4972079;28;45955;-81
2023/06/11 07:41:10;;;;;;;;;14.50;14.00;;;;;26.35;53.83;100581.50;4974693;28;45662;-82
2023/06/11 07:43:35;;;;;;;;;14.00;12.75;;;;;26.31;54.03;100571.19;4975301;28;45914;-82
2023/06/11 07:46:03;;;;;;;;;12.00;11.75;;;;;26.26;54.04;100578.25;4975975;28;45571;-87
2023/06/11 07:48:30;;;;;;;;;15.50;14.00;;;;;26.29;53.75;100580.50;4977261;28;45895;-87
2023/06/11 07:50:56;;;;;;;;;14.25;13.00;;;;;26.15;53.58;100557.38;4975701;28;45693;-85
2023/06/11 07:53:22;;;;;;;;;15.25;14.00;;;;;26.34;54.02;100582.56;4973745;28;45799;-80
2023/06/11 07:55:56;;;;;;;;;14.75;13.75;;;;;26.34;53.88;100599.53;4972647;28;45726;-80
2023/06/11 07:58:22;;;;;;;;;15.25;13.50;;;;;26.34;53.99;100587.94;4972491;28;47103;-80
2023/06/11 08:00:47;;;;;;;;;14.50;14.25;;;;;26.33;53.84;100579.06;4973198;28;45632;-79
2023/06/11 08:03:13;;;;;;;;;17.75;16.75;;;;;26.30;53.87;100587.53;4974817;28;45595;-83
2023/06/11 08:05:38;;;;;;;;;18.00;16.50;;;;;26.23;54.32;100576.00;4981297;28;45631;-82
2023/06/11 08:08:04;;;;;;;;;15.00;15.00;;;;;26.13;53.92;100573.69;4978032;28;45644;-78
2023/06/11 08:10:29;;;;;;;;;15.00;14.00;;;;;26.16;54.86;100575.16;4956791;28;45749;-77
2023/06/11 08:12:55;;;;;;;;;14.50;14.50;;;;;26.15;54.11;100574.31;4974254;28;45754;-82
2023/06/11 08:18:42;;;;;;;;;16.00;15.00;;;;;26.19;54.71;100566.66;4973340;28;45681;-83
2023/06/11 08:21:08;;;;;;;;;17.25;16.00;;;;;26.24;54.88;100565.00;4975922;28;45743;-86
2023/06/11 08:23:39;;;;;;;;;12.25;10.50;;;;;26.34;54.40;100571.81;4976951;28;45835;-79
2023/06/11 08:26:04;;;;;;;;;16.50;16.00;;;;;26.45;54.83;100580.00;4977160;28;45672;-89
2023/06/11 08:28:30;;;;;;;;;17.00;16.50;;;;;26.52;54.35;100574.63;4977443;28;45943;-80
2023/06/11 08:34:20;;;;;;;;;13.00;13.00;;;;;26.60;54.14;100561.78;4962023;28;45931;-77
2023/06/11 08:36:45;;;;;;;;;15.25;14.50;;;;;26.69;54.26;100563.16;4973311;28;46875;-89
2023/06/11 08:39:10;;;;;;;;;12.50;11.75;;;;;26.71;53.87;100558.41;4975516;28;46438;-81
2023/06/11 08:41:36;;;;;;;;;14.33;14.00;;;;;26.83;54.01;100569.28;4976956;28;45893;-79
2023/06/11 08:44:01;;;;;;;;;15.00;14.50;;;;;26.89;53.71;100575.69;4976010;28;45800;-83
2023/06/11 08:46:33;;;;;;;;;16.75;16.00;;;;;26.93;53.67;100568.88;4975554;28;45885;-85
2023/06/11 08:49:05;;;;;;;;;13.25;13.00;;;;;26.99;53.21;100570.69;4973815;28;46297;-83
2023/06/11 08:51:37;;;;;;;;;15.00;13.75;;;;;27.01;53.61;100565.91;4974541;28;45873;-86
2023/06/11 08:54:05;;;;;;;;;14.75;14.75;;;;;26.94;53.52;100548.97;4973141;28;45662;-81
2023/06/11 08:56:35;;;;;;;;;15.25;14.00;;;;;27.03;53.53;100553.06;4973239;28;46790;-83
2023/06/11 09:05:08;;;;;;;;;14.00;13.25;;;;;27.11;53.36;100547.41;4974072;28;45763;-80
2023/06/11 09:07:33;;;;;;;;;17.25;16.50;;;;;27.29;53.08;100565.50;4970976;28;45535;-82
2023/06/11 09:10:18;;;;;;;;;16.25;16.00;;;;;27.31;52.67;100568.78;4973125;28;45888;-82
2023/06/11 09:12:52;;;;;;;;;13.75;13.25;;;;;27.28;52.85;100561.16;4973764;28;45726;-82
2023/06/11 09:15:18;;;;;;;;;17.75;16.50;;;;;27.22;53.05;100544.00;4972961;28;45845;-79
2023/06/11 09:17:46;;;;;;;;;16.75;15.00;;;;;27.41;52.94;100569.13;4971469;28;45726;-76
2023/06/11 09:20:14;;;;;;;;;18.00;17.50;;;;;27.38;52.48;100573.06;4971573;28;45966;-78
2023/06/11 09:22:41;;;;;;;;;16.25;15.25;;;;;27.40;53.09;100584.44;4971360;28;45678;-74
2023/06/11 09:25:16;;;;;;;;;20.00;19.50;;;;;27.39;52.41;100580.09;4971890;28;45573;-75
2023/06/11 09:27:43;;;;;;;;;17.75;17.00;;;;;27.35;52.94;100586.16;4971021;28;45986;-77
2023/06/11 09:30:17;;;;;;;;;20.00;17.25;;;;;27.18;53.14;100560.81;4971595;28;46119;-76
2023/06/11 09:32:45;;;;;;;;;18.00;17.75;;;;;26.93;52.91;100523.97;4969808;28;46508;-73
2023/06/11 09:35:13;;;;;;;;;14.50;14.25;;;;;27.09;52.97;100549.50;4971478;28;45745;-75
2023/06/11 09:37:46;;;;;;;;;17.75;16.25;;;;;27.23;52.60;100563.66;4954313;28;46442;-75
2023/06/11 09:40:15;;;;;;;;;21.25;19.25;;;;;27.21;52.33;100563.88;4971650;28;45843;-74
2023/06/11 09:42:46;;;;;;;;;18.00;17.00;;;;;27.17;52.10;100557.28;4971243;28;45801;-75
2023/06/11 09:45:16;;;;;;;;;19.50;17.00;;;;;27.05;52.39;100535.66;4971549;28;45899;-75
2023/06/11 09:47:46;;;;;;;;;17.75;17.00;;;;;27.47;52.34;100600.56;4953391;28;48002;-73
2023/06/11 09:50:16;;;;;;;;;19.00;17.00;;;;;27.10;52.46;100530.44;4971516;28;45990;-75
2023/06/11 09:52:43;;;;;;;;;20.00;19.00;;;;;27.57;52.49;100602.78;4971154;28;45594;-74
2023/06/11 09:55:09;;;;;;;;;22.25;21.25;;;;;27.29;51.98;100560.94;4971795;28;45821;-73
2023/06/11 09:57:40;;;;;;;;;17.25;17.00;;;;;27.15;52.45;100552.13;4971239;28;45769;-75
2023/06/11 10:00:11;;;;;;;;;19.25;18.25;;;;;27.47;51.99;100612.16;4971358;28;45977;-76
2023/06/11 10:02:38;;;;;;;;;19.75;17.75;;;;;27.35;51.71;100595.03;4971004;28;45717;-75
2023/06/11 10:05:06;;;;;;;;;19.25;17.50;;;;;27.50;52.53;100608.19;4971798;28;45799;-76
2023/06/11 10:07:36;;;;;;;;;21.00;18.50;;;;;27.56;52.22;100607.31;4953403;28;47754;-75
2023/06/11 10:10:03;;;;;;;;;19.50;19.50;;;;;27.57;51.76;100610.84;4953810;28;47282;-74
2023/06/11 10:12:34;;;;;;;;;22.00;20.25;;;;;27.60;51.55;100618.47;4970887;28;45757;-74
2023/06/11 10:15:02;;;;;;;;;19.00;18.00;;;;;27.45;52.20;100590.00;4971509;28;45734;-77
2023/06/11 10:20:54;;;;;;;;;19.50;18.75;;;;;27.66;51.70;100609.50;4973852;28;46129;-79
2023/06/11 10:23:21;;;;;;;;;19.25;19.25;;;;;27.63;50.93;100605.41;4975268;28;45723;-78
2023/06/11 10:25:59;;;;;;;;;17.75;17.00;;;;;27.64;50.52;100609.72;4975878;28;45872;-79
2023/06/11 10:28:42;;;;;;;;;24.75;24.75;;;;;27.66;51.50;100614.91;4974649;28;46291;-78
2023/06/11 10:31:07;;;;;;;;;25.75;24.75;;;;;27.55;51.46;100619.97;4975343;28;46003;-80
2023/06/11 10:33:36;;;;;;;;;26.50;26.00;;;;;27.47;51.84;100622.09;4974695;28;45764;-79
2023/06/11 10:36:02;;;;;;;;;30.25;28.75;;;;;27.37;52.53;100616.38;4974834;28;45554;-78
2023/06/11 10:38:29;;;;;;;;;30.75;26.00;;;;;27.35;52.50;100640.78;4974260;28;46343;-80
2023/06/11 10:41:03;;;;;;;;;31.25;28.50;;;;;27.33;52.80;100628.59;4973019;28;46728;-78
2023/06/11 10:43:31;;;;;;;;;27.75;26.75;;;;;27.35;52.84;100621.13;4974243;28;45734;-76
2023/06/11 10:46:06;;;;;;;;;32.50;30.00;;;;;27.32;52.60;100625.06;4974604;28;45566;-76
2023/06/11 10:48:32;;;;;;;;;30.75;26.00;;;;;27.30;52.95;100610.19;4956386;28;46155;-74
2023/06/11 10:51:02;;;;;;;;;26.50;25.75;;;;;27.40;52.14;100621.31;4973949;28;45616;-74
2023/06/11 10:53:40;;;;;;;;;29.50;28.00;;;;;27.29;52.49;100609.38;4973921;28;46067;-73
2023/06/11 10:56:06;;;;;;;;;30.75;27.25;;;;;27.34;52.44;100617.63;4974601;28;45857;-77
2023/06/11 10:58:33;;;;;;;;;31.50;30.00;;;;;27.31;52.89;100618.06;4973694;28;47276;-74
2023/06/11 11:00:59;;;;;;;;;28.75;28.00;;;;;27.20;52.92;100602.63;4973281;28;46446;-75
2023/06/11 11:03:26;;;;;;;;;31.25;29.50;;;;;27.27;52.69;100621.38;4973335;28;45862;-74
2023/06/11 11:05:55;;;;;;;;;34.00;30.00;;;;;27.22;52.82;100618.53;4974264;28;45822;-75
2023/06/11 11:08:21;;;;;;;;;33.00;30.00;;;;;27.22;52.78;100623.91;4973886;28;47359;-77
2023/06/11 11:10:52;;;;;;;;;34.00;30.75;;;;;27.10;52.81;100616.53;4973546;28;46308;-74
2023/06/11 11:13:17;;;;;;;;;35.75;32.75;;;;;26.94;52.81;100616.19;4973500;28;45718;-74
2023/06/11 11:15:43;;;;;;;;;35.25;31.50;;;;;26.83;53.30;100612.31;4972377;28;45735;-77
2023/06/11 11:21:30;;;;;;;;;33.50;31.50;;;;;26.81;53.49;100605.50;4973585;28;46407;-74
2023/06/11 11:23:56;;;;;;;;;36.25;31.75;;;;;26.81;53.12;100614.41;4973181;28;46267;-79
2023/06/11 11:26:21;;;;;;;;;36.75;30.75;;;;;26.83;53.75;100611.50;4974318;28;45867;-75
2023/06/11 11:28:47;;;;;;;;;33.75;31.75;;;;;26.86;53.42;100613.75;4973492;28;47534;-75
2023/06/11 11:31:17;;;;;;;;;34.50;31.25;;;;;26.87;53.21;100618.94;4972278;28;46869;-74
2023/06/11 11:33:45;;;;;;;;;32.25;30.50;;;;;26.86;53.00;100605.69;4973438;28;45633;-74
2023/06/11 11:36:11;;;;;;;;;30.50;28.50;;;;;26.94;53.17;100610.81;4974050;28;45942;-76
2023/06/11 11:38:37;;;;;;;;;37.00;32.50;;;;;27.03;53.49;100625.69;4971818;28;46375;-76
2023/06/11 11:41:08;;;;;;;;;29.75;26.75;;;;;27.01;53.38;100612.44;4973623;28;45703;-74
2023/06/11 11:43:40;;;;;;;;;35.25;31.25;;;;;27.08;52.89;100615.09;4973099;28;45652;-74
2023/06/11 11:53:13;;;;;;;;;30.00;28.25;;;;;27.28;51.91;100626.56;4972967;28;45715;-78
2023/06/11 11:55:41;;;;;;;;;28.50;28.50;;;;;27.24;52.18;100611.06;4972241;28;45875;-76
2023/06/11 11:58:12;;;;;;;;;28.00;27.25;;;;;27.34;52.00;100617.63;4973246;28;45755;-80
2023/06/11 12:00:57;;;;;;;;;28.75;27.50;;;;;27.43;51.62;100599.31;4972864;28;45662;-76
2023/06/11 12:03:27;;;;;;;;;23.50;22.25;;;;;27.51;51.55;100599.91;4971387;28;47330;-74
2023/06/11 12:06:04;;;;;;;;;30.25;28.50;;;;;27.62;51.25;100606.44;4973320;28;45785;-74
2023/06/11 12:08:31;;;;;;;;;29.00;27.00;;;;;27.68;51.08;100602.88;4972929;28;45812;-76
2023/06/11 12:10:57;;;;;;;;;26.50;25.25;;;;;27.68;50.90;100593.97;4972735;28;45688;-75
2023/06/11 12:13:23;;;;;;;;;23.00;21.75;;;;;27.66;50.47;100596.88;4973000;28;45589;-75
2023/06/11 12:15:49;;;;;;;;;23.50;23.00;;;;;27.62;50.87;100593.00;4973519;28;45759;-74
2023/06/11 12:18:14;;;;;;;;;25.50;24.50;;;;;27.55;51.08;100587.66;4973108;28;45708;-73
2023/06/11 12:20:41;;;;;;;;;24.00;22.25;;;;;27.39;51.00;100572.03;4972786;28;45662;-74
2023/06/11 12:23:07;;;;;;;;;25.50;24.50;;;;;27.46;50.75;100580.06;4972875;28;46220;-75
2023/06/11 12:25:33;;;;;;;;;28.25;24.50;;;;;27.36;51.25;100577.03;4973142;28;45869;-82
2023/06/11 12:28:02;;;;;;;;;25.00;24.75;;;;;27.32;51.46;100581.19;4972399;28;45703;-77
2023/06/11 12:30:32;;;;;;;;;22.25;21.75;;;;;27.30;51.30;100581.44;4972556;28;45686;-79
2023/06/11 12:32:58;;;;;;;;;29.50;25.25;;;;;27.29;51.12;100571.69;4972574;28;47131;-79